Time;durP1;ratioP1;P1;durP2;ratioP2;P2;SDS_P1;SDS_P2;PMS_P1;PMS_P2;Temp;Humidity;BMP_temperature;BMP_pressure;BME280_temperature;BME280_humidity;BME280_pressure;Samples;Min_cycle;Max_cycle;Signal;HPM_P1;HPM_P2
2022/05/01 00:00:29;;;;;;;5.13;3.80;;;;;;;15.73;73.29;99950.22;5111895;28;20187;-72
2022/05/01 00:02:56;;;;;;;4.40;4.13;;;;;;;15.71;72.89;99955.00;5112205;28;20256;-71
2022/05/01 00:05:23;;;;;;;4.57;4.27;;;;;;;15.73;73.13;99960.94;5112175;28;20218;-71
2022/05/01 00:07:49;;;;;;;4.50;4.20;;;;;;;15.70;73.32;99958.72;5112165;28;20201;-70
2022/05/01 00:10:18;;;;;;;4.97;4.57;;;;;;;15.63;73.20;99957.09;5112624;28;20251;-71
2022/05/01 00:12:44;;;;;;;6.20;4.60;;;;;;;15.65;73.48;99963.09;5112017;28;20194;-70
2022/05/01 00:15:11;;;;;;;4.10;3.80;;;;;;;15.61;73.55;99969.91;5111927;28;20199;-71
2022/05/01 00:17:38;;;;;;;4.70;4.23;;;;;;;15.57;73.81;99976.75;5112259;28;20187;-71
2022/05/01 00:20:06;;;;;;;4.70;4.20;;;;;;;15.54;74.10;99978.00;5112105;28;20231;-70
2022/05/01 00:22:33;;;;;;;5.00;4.70;;;;;;;15.54;73.39;99980.69;5111045;28;20194;-71
2022/05/01 00:24:59;;;;;;;5.60;5.00;;;;;;;15.51;73.58;99981.09;5110676;28;20645;-76
2022/05/01 00:27:28;;;;;;;4.93;4.53;;;;;;;15.45;73.69;99986.50;5110851;28;20191;-71
2022/05/01 00:29:56;;;;;;;4.70;4.30;;;;;;;15.42;73.66;99982.41;5110001;28;20263;-71
2022/05/01 00:32:23;;;;;;;4.50;4.20;;;;;;;15.45;73.65;99976.59;5120291;28;20216;-70
2022/05/01 00:37:33;;;;;;;5.77;4.30;;;;;;;15.45;73.13;99991.84;5132493;28;20181;-70
2022/05/01 00:40:00;;;;;;;4.87;4.47;;;;;;;15.32;73.56;99992.69;5132611;28;20190;-70
2022/05/01 00:42:28;;;;;;;5.13;4.73;;;;;;;15.35;73.76;100000.34;5132272;28;20551;-70
2022/05/01 00:44:55;;;;;;;5.80;4.73;;;;;;;15.40;73.54;100000.50;5132478;27;20341;-71
2022/05/01 00:47:21;;;;;;;5.27;4.90;;;;;;;15.43;73.41;100005.44;5136237;27;20270;-70
2022/05/01 00:49:48;;;;;;;5.40;5.10;;;;;;;15.42;72.81;100009.16;5136226;27;20242;-70
2022/05/01 00:52:15;;;;;;;5.27;4.90;;;;;;;15.48;73.27;100002.94;5136168;27;20202;-71
2022/05/01 00:54:44;;;;;;;5.07;4.63;;;;;;;15.51;73.12;100009.72;5135746;27;20247;-71
2022/05/01 00:57:11;;;;;;;5.37;4.97;;;;;;;15.52;73.24;100008.72;5136608;27;20190;-71
2022/05/01 00:59:39;;;;;;;5.30;4.90;;;;;;;15.49;73.53;100009.94;5136828;27;20217;-72
2022/05/01 01:02:07;;;;;;;5.97;5.03;;;;;;;15.51;73.04;100007.88;5136015;27;20186;-72
2022/05/01 01:04:34;;;;;;;5.50;5.20;;;;;;;15.46;73.60;99999.66;5135538;27;20239;-72
2022/05/01 01:07:02;;;;;;;5.70;5.40;;;;;;;15.51;73.85;99989.13;5135978;27;20259;-72
2022/05/01 01:09:30;;;;;;;5.60;5.30;;;;;;;15.54;73.29;99990.56;5135760;27;20238;-72
2022/05/01 01:14:38;;;;;;;7.47;6.73;;;;;;;15.26;74.81;99971.31;5134344;27;20190;-71
2022/05/01 01:17:05;;;;;;;8.10;6.57;;;;;;;15.30;75.17;99969.84;5135962;27;20190;-71
2022/05/01 01:19:32;;;;;;;6.80;6.30;;;;;;;15.25;75.07;99959.81;5135174;27;20283;-70
2022/05/01 01:22:00;;;;;;;6.77;6.03;;;;;;;15.20;75.81;99961.50;5135913;27;20186;-71
2022/05/01 01:24:28;;;;;;;7.17;6.47;;;;;;;15.10;75.88;99961.94;5135199;27;20186;-71
2022/05/01 01:26:57;;;;;;;8.47;6.30;;;;;;;15.02;76.12;99958.69;5135005;27;20214;-71
2022/05/01 01:32:13;;;;;;;8.67;7.03;;;;;;;14.96;76.34;99965.69;5135567;27;20227;-71
2022/05/01 01:34:43;;;;;;;6.80;6.30;;;;;;;15.02;76.10;99975.56;5135580;27;20190;-72
2022/05/01 01:37:17;;;;;;;7.43;6.83;;;;;;;15.02;76.44;99978.25;5136384;27;20194;-71
2022/05/01 01:39:45;;;;;;;9.20;6.80;;;;;;;15.03;76.16;99971.84;5135542;27;20190;-72
2022/05/01 01:42:14;;;;;;;6.90;6.40;;;;;;;15.02;76.22;99969.38;5135202;27;20254;-71
2022/05/01 01:44:41;;;;;;;7.17;6.30;;;;;;;15.01;76.26;99967.75;5134810;27;20239;-71
2022/05/01 01:47:08;;;;;;;7.50;6.90;;;;;;;14.98;76.79;99969.00;5134745;27;20249;-71
2022/05/01 01:49:35;;;;;;;6.50;6.00;;;;;;;14.92;76.24;99975.22;5134769;27;20663;-71
2022/05/01 01:52:02;;;;;;;6.93;6.33;;;;;;;14.90;76.83;99976.44;5134987;27;20193;-71
2022/05/01 01:54:30;;;;;;;7.17;6.50;;;;;;;14.86;77.24;99978.72;5134873;27;20202;-71
2022/05/01 01:56:56;;;;;;;6.27;5.67;;;;;;;14.81;77.12;99972.34;5133813;27;20555;-71
2022/05/01 01:59:23;;;;;;;8.07;6.30;;;;;;;14.67;78.31;99970.78;5135656;27;20190;-70
2022/05/01 02:01:50;;;;;;;6.47;5.87;;;;;;;14.39;79.35;99972.91;5134563;27;20198;-71
2022/05/01 02:04:17;;;;;;;8.87;6.37;;;;;;;14.09;80.71;99969.81;5134631;27;20250;-70
2022/05/01 02:06:44;;;;;;;6.57;5.97;;;;;;;13.97;81.52;99971.47;5135150;27;20260;-70
2022/05/01 02:09:12;;;;;;;6.10;5.50;;;;;;;13.78;80.48;99964.28;5134638;27;20194;-70
2022/05/01 02:11:41;;;;;;;7.10;6.20;;;;;;;13.64;80.76;99961.81;5134891;27;20562;-70
2022/05/01 02:14:08;;;;;;;6.37;5.93;;;;;;;13.55;81.22;99958.50;5134247;27;20186;-71
2022/05/01 02:16:34;;;;;;;8.03;5.50;;;;;;;13.43;81.71;99954.78;5134523;27;20198;-71
2022/05/01 02:19:01;;;;;;;6.53;5.93;;;;;;;13.42;82.49;99957.66;5134988;27;20190;-70
2022/05/01 02:21:37;;;;;;;6.47;5.97;;;;;;;13.31;82.44;99961.75;5134506;27;20230;-71
2022/05/01 02:24:06;;;;;;;5.90;5.60;;;;;;;13.24;83.09;99963.56;5134503;27;20217;-71
2022/05/01 02:26:35;;;;;;;6.43;6.00;;;;;;;13.25;83.01;99959.91;5133848;27;20701;-70
2022/05/01 02:29:05;;;;;;;7.20;6.50;;;;;;;13.25;83.38;99961.72;5134180;27;20193;-70
2022/05/01 02:31:32;;;;;;;7.10;6.57;;;;;;;13.28;83.35;99964.81;5133904;27;20666;-70
2022/05/01 02:33:58;;;;;;;6.57;6.00;;;;;;;13.26;83.61;99966.03;5134447;27;20253;-70
2022/05/01 02:36:25;;;;;;;7.10;6.60;;;;;;;13.13;83.65;99968.66;5133838;27;20194;-71
2022/05/01 02:38:52;;;;;;;8.40;7.67;;;;;;;13.00;84.24;99958.81;5134280;27;20219;-71
2022/05/01 02:41:19;;;;;;;7.20;6.60;;;;;;;12.88;84.66;99957.69;5134514;27;20254;-72
2022/05/01 02:43:45;;;;;;;7.80;7.30;;;;;;;12.86;85.49;99967.72;5134259;27;20186;-71
2022/05/01 02:46:14;;;;;;;6.93;6.43;;;;;;;12.89;85.21;99972.66;5133427;27;20249;-71
2022/05/01 02:48:40;;;;;;;7.83;7.03;;;;;;;12.84;84.96;99968.94;5133840;27;20258;-72
2022/05/01 02:51:07;;;;;;;7.63;7.03;;;;;;;12.85;84.67;99960.75;5134383;27;20189;-72
2022/05/01 02:53:34;;;;;;;7.60;6.97;;;;;;;12.84;85.69;99956.44;5133893;27;20194;-71
2022/05/01 02:56:01;;;;;;;7.27;6.63;;;;;;;12.89;85.03;99964.66;5133117;27;20620;-72
2022/05/01 02:58:28;;;;;;;7.20;6.60;;;;;;;12.96;85.00;99962.84;5134551;27;20550;-72
2022/05/01 03:00:57;;;;;;;7.27;6.77;;;;;;;13.01;84.35;99965.78;5134428;27;20250;-72
2022/05/01 03:03:25;;;;;;;7.37;6.63;;;;;;;13.03;83.79;99966.38;5133362;27;20194;-72
2022/05/01 03:05:53;;;;;;;6.77;6.37;;;;;;;13.04;84.39;99965.38;5133434;27;20266;-72
2022/05/01 03:08:20;;;;;;;6.60;6.03;;;;;;;13.04;84.73;99973.38;5133497;27;20201;-72
2022/05/01 03:10:47;;;;;;;6.77;6.17;;;;;;;13.07;84.64;99969.50;5133514;27;20190;-72
2022/05/01 03:13:13;;;;;;;6.17;5.87;;;;;;;12.99;84.29;99967.00;5133722;27;20190;-72
2022/05/01 03:15:40;;;;;;;7.37;6.67;;;;;;;13.03;84.29;99977.03;5133176;27;20234;-72
2022/05/01 03:23:37;;;;;;;7.23;6.73;;;;;;;13.11;84.37;99979.53;5132953;27;20188;-73
2022/05/01 03:26:04;;;;;;;10.00;7.03;;;;;;;13.12;83.55;99973.19;5133150;27;20309;-73
2022/05/01 03:28:31;;;;;;;7.60;6.80;;;;;;;13.16;83.62;99966.44;5132949;27;20194;-72
2022/05/01 03:30:58;;;;;;;7.80;7.20;;;;;;;13.24;82.99;99971.56;5132931;27;20221;-72
2022/05/01 03:33:26;;;;;;;8.07;7.43;;;;;;;13.21;83.64;99981.84;5133074;27;20189;-72
2022/05/01 03:35:55;;;;;;;8.10;7.30;;;;;;;13.05;83.95;99977.69;5133110;27;20280;-72
2022/05/01 03:38:22;;;;;;;7.97;7.37;;;;;;;13.07;83.81;99974.81;5133125;28;20221;-72
2022/05/01 03:40:48;;;;;;;11.57;7.83;;;;;;;13.15;83.57;99971.97;5132805;28;20190;-73
2022/05/01 03:43:16;;;;;;;8.07;7.57;;;;;;;13.22;83.46;99970.97;5131664;28;20189;-71
2022/05/01 03:45:43;;;;;;;8.57;7.90;;;;;;;13.26;82.86;99974.03;5131474;28;20281;-73
2022/05/01 03:48:11;;;;;;;8.83;8.13;;;;;;;13.28;82.29;99970.16;5132885;28;20186;-72
2022/05/01 03:50:38;;;;;;;8.37;7.53;;;;;;;13.45;82.06;99963.44;5133050;28;20277;-71
2022/05/01 03:53:06;;;;;;;8.20;7.47;;;;;;;13.69;80.46;99973.50;5132348;28;20662;-72
2022/05/01 03:55:33;;;;;;;8.20;7.47;;;;;;;13.96;79.25;99975.16;5131849;28;20194;-73
2022/05/01 03:58:01;;;;;;;6.37;6.07;;;;;;;14.29;78.34;99977.84;5131582;28;20190;-72
2022/05/01 04:00:28;;;;;;;9.47;6.30;;;;;;;14.58;75.77;99991.56;5131976;28;20205;-73
2022/05/01 04:02:55;;;;;;;6.47;6.07;;;;;;;14.93;74.03;99997.41;5131298;28;20277;-71
2022/05/01 04:05:22;;;;;;;6.90;6.40;;;;;;;15.14;72.64;100005.97;5132119;28;20194;-71
2022/05/01 04:07:48;;;;;;;5.97;5.60;;;;;;;15.42;71.08;100014.53;5132099;28;20218;-71
2022/05/01 04:10:16;;;;;;;6.00;5.50;;;;;;;15.72;69.28;100015.56;5131813;28;20266;-70
2022/05/01 04:12:44;;;;;;;6.07;5.57;;;;;;;15.96;67.48;100023.84;5132566;28;20224;-71
2022/05/01 04:15:14;;;;;;;6.70;5.50;;;;;;;16.17;66.53;100028.84;5132948;28;20269;-72
2022/05/01 04:17:41;;;;;;;5.50;5.10;;;;;;;16.32;65.91;100026.63;5132486;28;20731;-72
2022/05/01 04:20:10;;;;;;;5.37;4.97;;;;;;;16.61;64.90;100032.16;5132964;27;20294;-71
2022/05/01 04:22:38;;;;;;;7.13;5.40;;;;;;;16.89;63.08;100039.72;5136515;27;20194;-72
2022/05/01 04:25:06;;;;;;;6.13;5.10;;;;;;;17.10;62.99;100025.84;5135001;27;20281;-71
2022/05/01 04:27:34;;;;;;;5.53;5.10;;;;;;;17.39;62.74;100025.88;5135890;27;20725;-70
2022/05/01 04:30:01;;;;;;;9.60;5.13;;;;;;;17.77;59.86;100037.16;5136538;27;20227;-70
2022/05/01 04:32:28;;;;;;;5.13;4.83;;;;;;;18.08;58.66;100028.81;5135392;27;20216;-70
2022/05/01 04:34:55;;;;;;;5.57;4.77;;;;;;;18.26;57.88;100030.59;5136444;27;20230;-70
2022/05/01 04:37:22;;;;;;;5.17;4.87;;;;;;;18.53;57.45;100023.72;5136978;27;20194;-70
2022/05/01 04:39:49;;;;;;;5.40;4.90;;;;;;;18.81;57.07;100031.91;5135862;27;20239;-71
2022/05/01 04:42:17;;;;;;;5.70;5.40;;;;;;;19.04;56.55;100027.28;5135910;27;20190;-70
2022/05/01 04:44:45;;;;;;;5.90;5.37;;;;;;;19.53;55.29;100036.69;5135268;27;20199;-69
2022/05/01 04:47:12;;;;;;;5.93;5.53;;;;;;;19.84;54.71;100028.91;5136071;27;20220;-69
2022/05/01 04:49:39;;;;;;;5.87;5.37;;;;;;;19.98;55.41;100040.22;5135379;27;20247;-71
2022/05/01 04:52:06;;;;;;;9.67;6.00;;;;;;;20.21;53.04;100042.78;5135279;27;20252;-70
2022/05/01 04:54:32;;;;;;;5.73;5.30;;;;;;;20.44;52.58;100038.06;5135743;27;20632;-68
2022/05/01 04:57:09;;;;;;;6.73;6.20;;;;;;;20.65;51.76;100041.88;5135329;27;20224;-68
2022/05/01 04:59:37;;;;;;;6.10;5.60;;;;;;;20.95;50.79;100030.72;5135166;27;20189;-67
2022/05/01 05:02:05;;;;;;;9.03;5.60;;;;;;;20.91;51.82;100038.50;5135799;27;20241;-67
2022/05/01 05:04:33;;;;;;;7.70;5.90;;;;;;;21.11;51.58;100041.44;5125766;27;20420;-73
2022/05/01 05:06:59;;;;;;;7.57;6.73;;;;;;;21.18;51.29;100036.69;5135269;27;20217;-71
2022/05/01 05:12:10;;;;;;;7.53;6.30;;;;;;;22.40;49.34;100040.38;5135483;27;20258;-70
2022/05/01 05:14:37;;;;;;;6.50;6.00;;;;;;;23.04;47.58;100042.75;5135771;27;20189;-70
2022/05/01 05:17:07;;;;;;;6.10;5.50;;;;;;;23.90;46.86;100041.97;5135225;27;20243;-67
2022/05/01 05:19:35;;;;;;;7.67;7.17;;;;;;;24.73;41.12;100046.91;5135152;27;20761;-68
2022/05/01 05:22:02;;;;;;;6.60;5.97;;;;;;;25.00;41.37;100031.06;5135347;27;20677;-66
2022/05/01 05:24:29;;;;;;;6.53;6.03;;;;;;;25.10;41.68;100026.69;5135104;27;20192;-66
2022/05/01 05:26:56;;;;;;;6.83;6.27;;;;;;;25.02;40.05;100027.28;5134909;27;20595;-66
2022/05/01 05:29:22;;;;;;;9.07;6.07;;;;;;;25.53;40.52;100028.69;5135460;27;20193;-66
2022/05/01 05:31:49;;;;;;;7.07;6.47;;;;;;;25.32;39.50;100028.00;5133992;27;20193;-66
2022/05/01 05:34:17;;;;;;;6.63;5.60;;;;;;;25.35;42.19;100032.84;5136178;27;20194;-66
2022/05/01 05:36:44;;;;;;;34.17;8.07;;;;;;;25.22;41.79;100032.59;5135308;27;20193;-66
2022/05/01 05:39:11;;;;;;;10.57;7.07;;;;;;;25.29;40.21;100033.16;5135088;27;20371;-66
2022/05/01 05:41:37;;;;;;;8.07;6.80;;;;;;;25.62;39.29;100022.38;5134982;27;20238;-66
2022/05/01 05:44:05;;;;;;;16.23;7.70;;;;;;;25.86;39.11;100038.84;5129840;27;20249;-66
2022/05/01 05:46:32;;;;;;;15.23;6.67;;;;;;;25.80;39.90;100034.53;5119140;27;20257;-66
2022/05/01 05:48:59;;;;;;;8.20;6.97;;;;;;;25.60;40.64;100040.09;5114772;27;20251;-66
2022/05/01 05:51:27;;;;;;;9.60;6.97;;;;;;;24.85;40.64;100044.72;5114787;27;20192;-65
2022/05/01 05:53:54;;;;;;;9.37;6.97;;;;;;;23.72;44.21;100042.47;5115126;28;20607;-65
2022/05/01 05:56:22;;;;;;;7.67;7.07;;;;;;;23.72;45.03;100042.47;5114144;28;20630;-65
2022/05/01 05:58:49;;;;;;;8.13;7.37;;;;;;;23.46;45.93;100046.19;5114211;28;20195;-66
2022/05/01 06:01:16;;;;;;;7.27;6.67;;;;;;;23.68;46.58;100043.28;5114148;27;20201;-66
2022/05/01 06:03:43;;;;;;;8.40;7.80;;;;;;;23.08;47.81;100043.03;5125327;27;20195;-66
2022/05/01 06:06:10;;;;;;;7.77;6.90;;;;;;;23.77;46.67;100055.25;5115647;27;20207;-65
2022/05/01 06:08:39;;;;;;;9.73;8.90;;;;;;;23.77;44.15;100053.31;5133877;27;20655;-65
2022/05/01 06:11:06;;;;;;;8.77;8.00;;;;;;;23.40;45.42;100052.66;5125938;27;20218;-66
2022/05/01 06:13:33;;;;;;;8.87;8.17;;;;;;;22.84;47.09;100050.75;5113380;28;20244;-65
2022/05/01 06:16:00;;;;;;;9.67;7.90;;;;;;;22.46;48.58;100051.03;5113840;28;20243;-65
2022/05/01 06:18:26;;;;;;;7.97;7.37;;;;;;;22.50;48.00;100046.72;5114037;28;20255;-67
2022/05/01 06:20:53;;;;;;;9.20;7.47;;;;;;;22.44;48.78;100036.91;5131440;27;20222;-66
2022/05/01 06:23:20;;;;;;;6.80;6.20;;;;;;;22.47;50.47;100046.44;5132935;27;20654;-65
2022/05/01 06:25:49;;;;;;;6.40;5.90;;;;;;;22.94;49.45;100031.84;5132969;27;20235;-66
2022/05/01 06:28:16;;;;;;;8.53;7.30;;;;;;;23.63;46.83;100040.53;5133213;27;20224;-65
2022/05/01 06:30:45;;;;;;;8.27;7.53;;;;;;;23.61;46.30;100043.50;5133068;27;20263;-65
2022/05/01 06:33:17;;;;;;;8.53;6.60;;;;;;;23.96;46.04;100050.94;5133531;27;20206;-65
2022/05/01 06:35:45;;;;;;;6.30;5.70;;;;;;;24.90;44.24;100046.59;5123712;27;20240;-69
2022/05/01 06:38:11;;;;;;;9.63;6.70;;;;;;;25.70;41.53;100053.63;5113341;28;20352;-66
2022/05/01 06:40:39;;;;;;;6.97;6.47;;;;;;;26.08;38.97;100052.88;5112199;28;20747;-66
2022/05/01 06:43:07;;;;;;;6.70;6.30;;;;;;;26.19;39.69;100054.41;5111232;28;20654;-67
2022/05/01 06:45:35;;;;;;;6.10;5.50;;;;;;;26.72;38.61;100058.91;5110731;28;20739;-66
2022/05/01 06:48:02;;;;;;;6.47;5.93;;;;;;;26.04;38.45;100054.56;5109084;28;20244;-65
2022/05/01 06:50:29;;;;;;;6.47;6.00;;;;;;;25.08;39.75;100044.09;5108384;27;20275;-66
2022/05/01 06:52:56;;;;;;;6.23;5.87;;;;;;;24.98;40.23;100046.84;5127378;27;20636;-65
2022/05/01 06:55:25;;;;;;;8.30;6.50;;;;;;;24.79;41.40;100045.78;5132463;27;20250;-65
2022/05/01 06:57:52;;;;;;;6.80;6.30;;;;;;;24.70;41.73;100042.00;5131634;27;20204;-65
2022/05/01 07:00:21;;;;;;;5.53;5.13;;;;;;;24.98;41.55;100045.22;5127556;27;20255;-66
2022/05/01 07:02:48;;;;;;;5.60;5.20;;;;;;;25.71;40.32;100047.09;5110435;28;20239;-66
2022/05/01 07:05:15;;;;;;;6.27;5.80;;;;;;;25.87;39.08;100051.34;5109116;27;20201;-64
2022/05/01 07:07:42;;;;;;;7.47;6.07;;;;;;;25.94;40.87;100041.00;5130894;27;20256;-65
2022/05/01 07:10:09;;;;;;;6.70;6.30;;;;;;;26.21;38.41;100046.78;5132801;27;20200;-65
2022/05/01 07:12:36;;;;;;;8.03;4.77;;;;;;;26.29;40.25;100043.47;5131442;27;20247;-67
2022/05/01 07:15:05;;;;;;;6.17;5.77;;;;;;;26.50;38.69;100051.16;5129909;27;20697;-66
2022/05/01 07:17:34;;;;;;;6.63;5.40;;;;;;;26.95;37.10;100049.94;5130527;27;20227;-67
2022/05/01 07:20:02;;;;;;;5.97;5.57;;;;;;;27.28;36.92;100047.09;5131468;27;20253;-65
2022/05/01 07:22:29;;;;;;;6.27;5.80;;;;;;;26.96;36.22;100054.28;5131393;27;20197;-65
2022/05/01 07:24:56;;;;;;;6.70;6.30;;;;;;;26.73;37.05;100044.16;5131851;27;20257;-66
2022/05/01 07:27:23;;;;;;;5.50;5.10;;;;;;;26.33;37.93;100044.53;5131714;27;20221;-64
2022/05/01 07:29:50;;;;;;;6.40;5.80;;;;;;;25.95;39.06;100053.50;5132073;27;20185;-66
2022/05/01 07:32:16;;;;;;;6.33;5.60;;;;;;;25.85;38.37;100048.09;5131002;27;20194;-65
2022/05/01 07:34:44;;;;;;;5.87;4.33;;;;;;;25.68;39.81;100045.75;5132304;27;20193;-65
2022/05/01 07:37:13;;;;;;;4.67;4.27;;;;;;;25.70;37.75;100046.28;5130768;27;20193;-64
2022/05/01 07:39:40;;;;;;;4.03;3.83;;;;;;;25.67;37.94;100043.31;5130826;27;20278;-66
2022/05/01 07:42:07;;;;;;;5.57;5.17;;;;;;;25.61;36.80;100053.44;5132142;28;20238;-65
2022/05/01 07:44:34;;;;;;;4.90;4.50;;;;;;;25.46;38.45;100049.94;5130231;28;20190;-64
2022/05/01 07:47:01;;;;;;;4.53;4.13;;;;;;;25.67;38.71;100051.47;5119987;28;20234;-66
2022/05/01 07:49:27;;;;;;;11.40;4.97;;;;;;;25.94;36.53;100063.59;5110769;28;20201;-65
2022/05/01 07:51:56;;;;;;;3.60;3.30;;;;;;;26.13;37.19;100061.03;5109947;28;20194;-66
2022/05/01 07:54:23;;;;;;;4.07;3.87;;;;;;;26.11;36.33;100053.13;5110181;28;20190;-66
2022/05/01 07:56:50;;;;;;;4.83;4.43;;;;;;;25.97;35.95;100043.16;5113758;28;20251;-66
2022/05/01 07:59:17;;;;;;;4.93;4.43;;;;;;;25.74;35.32;100049.25;5114596;28;20201;-66
2022/05/01 08:01:43;;;;;;;4.50;4.10;;;;;;;25.52;36.20;100043.41;5113036;28;20201;-66
2022/05/01 08:06:59;;;;;;;4.27;3.87;;;;;;;26.45;36.30;100031.34;5111864;28;20254;-66
2022/05/01 08:09:26;;;;;;;4.50;4.10;;;;;;;26.34;34.61;100037.97;5112825;28;20239;-67
2022/05/01 08:11:53;;;;;;;4.00;3.57;;;;;;;26.40;35.84;100036.81;5130187;27;20197;-66
2022/05/01 08:14:21;;;;;;;4.00;3.70;;;;;;;26.55;35.04;100039.41;5134059;27;20193;-66
2022/05/01 08:16:48;;;;;;;5.63;4.50;;;;;;;26.96;34.90;100035.19;5133729;27;20194;-66
2022/05/01 08:21:59;;;;;;;3.77;3.57;;;;;;;27.73;31.63;100030.13;5133717;27;20268;-66
2022/05/01 08:24:27;;;;;;;3.83;3.53;;;;;;;27.69;31.64;100031.03;5132615;27;20672;-66
2022/05/01 08:26:54;;;;;;;3.93;3.60;;;;;;;27.26;31.15;100018.47;5134164;27;20190;-66
2022/05/01 08:29:20;;;;;;;5.07;4.33;;;;;;;27.37;32.03;100022.72;5133476;27;20543;-67
2022/05/01 08:31:47;;;;;;;4.97;4.67;;;;;;;27.82;32.26;100022.13;5134275;27;20627;-66
2022/05/01 08:34:14;;;;;;;4.43;4.13;;;;;;;28.25;30.85;100015.41;5135688;27;20190;-66
2022/05/01 08:36:41;;;;;;;5.17;4.77;;;;;;;28.65;30.10;100007.34;5135411;27;20193;-66
2022/05/01 08:39:10;;;;;;;4.50;4.10;;;;;;;28.47;29.27;100015.63;5135375;27;20197;-66
2022/05/01 08:41:37;;;;;;;5.33;4.40;;;;;;;27.81;30.03;100009.53;5136196;27;20216;-64
2022/05/01 08:44:05;;;;;;;3.83;3.50;;;;;;;28.07;30.22;100002.59;5135822;27;20189;-65
2022/05/01 08:46:57;;;;;;;10.83;3.60;;;;;;;28.13;29.10;100002.22;5135264;27;20588;-65
2022/05/01 08:49:25;;;;;;;6.83;6.33;;;;;;;28.54;30.68;100005.91;5123534;27;20312;-65
2022/05/01 08:51:52;;;;;;;3.87;3.67;;;;;;;29.03;26.22;100008.81;5135736;27;20186;-65
2022/05/01 08:54:21;;;;;;;3.10;2.70;;;;;;;29.41;24.58;99998.44;5134752;27;20251;-66
2022/05/01 08:56:48;;;;;;;3.00;2.80;;;;;;;29.72;24.75;100004.88;5135552;27;20186;-65
2022/05/01 08:59:17;;;;;;;2.97;2.60;;;;;;;29.86;23.64;99991.94;5134322;27;20193;-71
2022/05/01 09:01:45;;;;;;;4.30;2.73;;;;;;;30.04;24.88;99982.72;5133577;27;20577;-66
2022/05/01 09:04:14;;;;;;;5.80;2.80;;;;;;;30.23;24.02;99977.09;5134990;27;20320;-68
2022/05/01 09:06:44;;;;;;;2.63;2.43;;;;;;;29.99;23.99;99982.84;5133653;27;20285;-66
2022/05/01 09:09:12;;;;;;;1.63;1.63;;;;;;;29.23;23.30;99974.72;5133724;27;20613;-67
2022/05/01 09:14:27;;;;;;;2.30;2.20;;;;;;;29.06;24.96;99974.56;5113833;28;20178;-67
2022/05/01 09:17:13;;;;;;;2.50;2.30;;;;;;;28.65;22.55;99979.19;5113722;28;20195;-66
2022/05/01 09:19:40;;;;;;;2.40;2.20;;;;;;;28.01;25.41;99958.16;5113023;28;20273;-67
2022/05/01 09:22:07;;;;;;;2.70;2.50;;;;;;;27.97;24.23;99968.06;5113778;28;20194;-66
2022/05/01 09:24:34;;;;;;;2.37;2.20;;;;;;;28.31;25.95;99956.81;5112912;28;20195;-66
2022/05/01 09:27:03;;;;;;;2.20;2.00;;;;;;;28.55;25.65;99962.97;5114468;28;20252;-66
2022/05/01 09:29:34;;;;;;;2.40;1.53;;;;;;;28.65;24.60;99962.75;5113146;28;20218;-66
2022/05/01 09:32:03;;;;;;;3.20;2.13;;;;;;;28.70;23.79;99952.53;5113208;28;20191;-66
2022/05/01 09:34:32;;;;;;;2.37;2.27;;;;;;;28.63;25.03;99954.06;5114110;28;20198;-67
2022/05/01 09:37:00;;;;;;;3.57;2.40;;;;;;;28.61;24.05;99954.38;5113328;28;20283;-67
2022/05/01 09:39:29;;;;;;;3.60;2.30;;;;;;;28.72;24.93;99941.31;5114109;28;20195;-68
2022/05/01 09:42:12;;;;;;;3.20;2.27;;;;;;;28.65;23.34;99930.78;5112957;28;20186;-67
2022/05/01 09:44:40;;;;;;;1.80;1.70;;;;;;;28.82;22.96;99936.44;5114029;28;20183;-67
2022/05/01 09:47:08;;;;;;;3.30;2.00;;;;;;;28.81;23.22;99934.00;5113340;28;20259;-69
2022/05/01 09:49:48;;;;;;;2.30;2.13;;;;;;;28.35;24.10;99914.13;5112565;28;20244;-68
2022/05/01 09:52:15;;;;;;;2.10;2.00;;;;;;;28.53;23.36;99933.19;5112668;28;20191;-69
2022/05/01 09:55:01;;;;;;;2.03;1.83;;;;;;;28.30;22.30;99931.41;5112396;28;20190;-68
2022/05/01 09:57:37;;;;;;;2.30;1.87;;;;;;;28.29;22.21;99926.25;5110417;28;20247;-66
2022/05/01 10:00:07;;;;;;;2.00;1.90;;;;;;;28.19;23.23;99923.69;5110571;28;20194;-66
2022/05/01 10:02:34;;;;;;;1.97;1.87;;;;;;;27.81;24.55;99916.69;5111486;28;20240;-67
2022/05/01 10:05:04;;;;;;;1.90;1.80;;;;;;;27.74;22.66;99913.53;5110770;28;20236;-65
2022/05/01 10:07:37;;;;;;;4.67;2.20;;;;;;;27.97;24.36;99918.09;5111384;28;20281;-67
2022/05/01 10:10:07;;;;;;;2.33;2.07;;;;;;;27.87;24.07;99918.25;5112377;27;20707;-65
2022/05/01 10:12:41;;;;;;;2.00;1.90;;;;;;;28.02;23.41;99920.72;5132147;27;20198;-71
2022/05/01 10:15:11;;;;;;;1.97;1.87;;;;;;;27.16;23.25;99895.84;5132980;27;20193;-71
2022/05/01 10:17:39;;;;;;;4.40;1.80;;;;;;;27.30;24.05;99899.47;5132601;27;20753;-69
2022/05/01 10:20:07;;;;;;;2.10;2.00;;;;;;;27.37;25.26;99886.28;5133969;27;20232;-69
2022/05/01 10:22:36;;;;;;;2.30;2.20;;;;;;;26.81;24.29;99888.13;5133770;27;20202;-70
2022/05/01 10:25:04;;;;;;;2.37;2.07;;;;;;;26.96;26.06;99872.38;5134786;27;20190;-70
2022/05/01 10:27:36;;;;;;;2.27;2.10;;;;;;;27.02;24.99;99881.28;5133089;27;20189;-71
2022/05/01 10:33:20;;;;;;;1.90;1.80;;;;;;;27.21;24.70;99876.69;5132992;27;20219;-70
2022/05/01 10:36:04;;;;;;;2.77;1.80;;;;;;;27.37;25.09;99867.16;5133812;27;20227;-71
2022/05/01 10:38:39;;;;;;;1.80;1.70;;;;;;;27.61;24.34;99876.06;5133611;27;20186;-69
2022/05/01 10:41:07;;;;;;;1.70;1.60;;;;;;;27.89;24.72;99866.88;5133721;27;20238;-69
2022/05/01 10:43:36;;;;;;;1.40;1.30;;;;;;;28.11;22.58;99867.03;5133200;27;20247;-70
2022/05/01 10:46:05;;;;;;;2.77;1.60;;;;;;;28.09;23.35;99855.59;5133766;27;20194;-69
2022/05/01 10:48:38;;;;;;;1.73;1.63;;;;;;;28.13;22.17;99851.16;5133727;27;20226;-67
2022/05/01 10:51:47;;;;;;;1.90;1.50;;;;;;;27.77;22.27;99850.13;5133641;27;20262;-68
2022/05/01 10:54:37;;;;;;;1.97;1.60;;;;;;;27.55;23.30;99847.22;5133690;27;20185;-67
2022/05/01 10:57:15;;;;;;;2.13;2.03;;;;;;;27.02;24.00;99840.38;5133157;27;20186;-68
2022/05/01 10:59:46;;;;;;;4.40;2.20;;;;;;;26.91;24.69;99828.81;5132397;27;20661;-69
2022/05/01 11:02:25;;;;;;;2.43;2.13;;;;;;;26.34;26.14;99839.09;5130678;27;20239;-68
2022/05/01 11:04:54;;;;;;;1.90;1.80;;;;;;;25.74;25.81;99845.13;5116896;27;20208;-68
2022/05/01 11:07:23;;;;;;;1.97;1.87;;;;;;;25.38;25.53;99832.91;5109958;28;20628;-69
2022/05/01 11:09:50;;;;;;;2.80;2.00;;;;;;;24.79;25.97;99822.94;5109553;28;20274;-69
2022/05/01 11:12:19;;;;;;;2.60;1.83;;;;;;;24.36;26.93;99820.13;5130782;27;20197;-69
2022/05/01 11:14:57;;;;;;;1.63;1.53;;;;;;;24.09;27.67;99817.78;5130614;27;20748;-69
2022/05/01 11:17:51;;;;;;;1.87;1.73;;;;;;;24.26;26.46;99823.69;5132539;27;20222;-68
2022/05/01 11:20:33;;;;;;;1.80;1.70;;;;;;;24.47;26.26;99816.28;5133508;27;20282;-68
2022/05/01 11:23:31;;;;;;;3.07;1.60;;;;;;;24.54;26.93;99811.38;5133265;27;20188;-68
2022/05/01 11:26:18;;;;;;;1.63;1.53;;;;;;;24.39;27.30;99806.78;5133314;27;20188;-68
2022/05/01 11:28:53;;;;;;;1.67;1.57;;;;;;;24.46;26.54;99817.41;5132502;27;20224;-68
2022/05/01 11:31:42;;;;;;;1.60;1.50;;;;;;;24.34;26.12;99823.13;5132406;27;20185;-68
2022/05/01 11:34:48;;;;;;;2.00;1.90;;;;;;;24.59;26.53;99812.16;5132776;27;20567;-68
2022/05/01 11:37:17;;;;;;;2.17;1.90;;;;;;;24.59;26.14;99814.06;5133220;27;20192;-68
2022/05/01 11:40:23;;;;;;;3.03;1.60;;;;;;;24.33;26.96;99804.38;5132455;27;20658;-68
2022/05/01 11:42:51;;;;;;;4.10;3.80;;;;;;;24.46;26.65;99806.53;5049407;28;20195;-67
2022/05/01 11:45:19;;;;;;;2.07;1.97;;;;;;;24.59;26.32;99795.84;5118714;28;20235;-68
2022/05/01 11:47:50;;;;;;;1.73;1.63;;;;;;;24.77;25.93;99803.41;5132343;28;20204;-68
2022/05/01 11:50:23;;;;;;;1.30;1.20;;;;;;;24.82;25.48;99800.66;5132526;28;20708;-68
2022/05/01 11:52:53;;;;;;;3.17;1.60;;;;;;;24.95;26.31;99802.72;5133039;28;20225;-68
2022/05/01 11:55:20;;;;;;;1.43;1.33;;;;;;;24.58;25.63;99810.53;5132516;28;20558;-69
2022/05/01 12:03:29;;;;;;;1.60;1.50;;;;;;;24.31;26.30;99790.28;5132595;28;20188;-69
2022/05/01 12:05:56;;;;;;;1.70;1.60;;;;;;;24.29;26.26;99781.59;5133002;28;20215;-67
2022/05/01 12:08:24;;;;;;;1.57;1.47;;;;;;;24.26;25.88;99769.38;5132191;28;20645;-67
2022/05/01 12:10:51;;;;;;;1.50;1.50;;;;;;;23.81;26.76;99766.78;5132263;28;20197;-67